Time;durP1;ratioP1;P1;durP2;ratioP2;P2;SDS_P1;SDS_P2;PMS_P1;PMS_P2;Temp;Humidity;BMP_temperature;BMP_pressure;BME280_temperature;BME280_humidity;BME280_pressure;Samples;Min_cycle;Max_cycle;Signal;HPM_P1;HPM_P2
2022/03/08 00:01:42;;;;;;;11.63;7.03;;;2.40;58.00;;;;;;6252244;22;20440;-89
2022/03/08 00:04:07;;;;;;;11.47;6.47;;;2.40;57.90;;;;;;6251904;22;20095;-88
2022/03/08 00:06:33;;;;;;;10.00;6.50;;;2.40;57.80;;;;;;6252088;22;20031;-88
2022/03/08 00:09:32;;;;;;;9.97;6.20;;;2.40;57.90;;;;;;6279699;22;20035;-88
2022/03/08 00:11:57;;;;;;;14.07;8.27;;;2.40;57.90;;;;;;6279720;22;20066;-88
2022/03/08 00:14:23;;;;;;;13.40;8.33;;;2.40;57.80;;;;;;6252402;22;20012;-88
2022/03/08 00:16:49;;;;;;;12.53;8.47;;;2.40;57.90;;;;;;6252413;22;20051;-88
2022/03/08 00:19:14;;;;;;;11.13;7.30;;;2.40;57.90;;;;;;6279676;22;20043;-89
2022/03/08 00:21:40;;;;;;;11.27;7.13;;;2.40;58.10;;;;;;6279808;22;20497;-88
2022/03/08 00:24:08;;;;;;;10.20;6.83;;;2.40;58.10;;;;;;6251776;22;20328;-89
2022/03/08 00:26:34;;;;;;;11.30;7.37;;;2.40;58.10;;;;;;6252579;22;20317;-89
2022/03/08 00:29:00;;;;;;;13.53;8.43;;;2.40;58.20;;;;;;6280251;22;20015;-88
2022/03/08 00:31:25;;;;;;;14.60;8.23;;;2.30;58.10;;;;;;6305752;22;20065;-83
2022/03/08 00:33:51;;;;;;;12.40;7.40;;;2.40;58.30;;;;;;6279153;22;20003;-87
2022/03/08 00:36:17;;;;;;;10.17;6.23;;;2.30;58.30;;;;;;6266162;22;20020;-89
2022/03/08 00:38:43;;;;;;;10.10;6.57;;;2.30;58.40;;;;;;6279787;22;20012;-89
2022/03/08 00:41:09;;;;;;;9.50;6.53;;;2.30;58.30;;;;;;6251947;22;20016;-88
2022/03/08 00:43:34;;;;;;;10.93;6.73;;;2.30;58.40;;;;;;6279899;22;20482;-88
2022/03/08 00:46:00;;;;;;;12.47;7.20;;;2.30;58.50;;;;;;6252383;22;20020;-88
2022/03/08 00:48:26;;;;;;;11.33;6.80;;;2.30;58.50;;;;;;6279497;22;20474;-88
2022/03/08 00:50:52;;;;;;;10.70;6.70;;;2.20;58.40;;;;;;6279480;22;20058;-89
2022/03/08 00:53:19;;;;;;;10.57;7.10;;;2.20;58.50;;;;;;6279287;22;20012;-88
2022/03/08 00:55:45;;;;;;;11.33;6.23;;;2.20;58.60;;;;;;6279596;22;20022;-89
2022/03/08 00:58:11;;;;;;;14.90;8.07;;;2.20;58.70;;;;;;6252065;22;20436;-89
2022/03/08 01:00:38;;;;;;;11.80;7.97;;;2.20;58.60;;;;;;6279076;22;20055;-89
2022/03/08 01:03:05;;;;;;;11.80;7.03;;;2.20;58.80;;;;;;6278985;22;20039;-88
2022/03/08 01:05:32;;;;;;;13.90;7.57;;;2.10;58.90;;;;;;6279446;22;20023;-88
2022/03/08 01:07:59;;;;;;;12.77;6.80;;;2.20;59.00;;;;;;6252012;22;20507;-88
2022/03/08 01:13:50;;;;;;;11.33;6.63;;;2.20;59.00;;;;;;6251594;22;20020;-88
2022/03/08 01:16:15;;;;;;;11.37;7.00;;;2.20;58.90;;;;;;6251482;22;20347;-89
2022/03/08 01:18:41;;;;;;;9.93;5.97;;;2.20;58.90;;;;;;6251427;22;20016;-88
2022/03/08 01:21:06;;;;;;;10.97;6.90;;;2.20;58.90;;;;;;6251841;22;20024;-89
2022/03/08 01:23:32;;;;;;;10.63;6.53;;;2.20;58.90;;;;;;6251425;22;20083;-88
2022/03/08 01:25:58;;;;;;;14.70;8.53;;;2.20;58.90;;;;;;6279075;22;20019;-88
2022/03/08 01:28:23;;;;;;;14.33;8.43;;;2.20;59.10;;;;;;6251030;22;20012;-87
2022/03/08 01:30:49;;;;;;;12.00;7.40;;;2.20;59.00;;;;;;6279370;22;20379;-89
2022/03/08 01:33:15;;;;;;;10.90;6.97;;;2.20;59.30;;;;;;6278910;22;20020;-89
2022/03/08 01:35:40;;;;;;;11.70;7.37;;;2.20;59.20;;;;;;6279434;22;20012;-89
2022/03/08 01:38:06;;;;;;;9.87;6.17;;;2.20;59.30;;;;;;6279169;22;20066;-89
2022/03/08 01:41:09;;;;;;;12.70;7.47;;;2.30;59.40;;;;;;6251474;22;20448;-88
2022/03/08 01:43:35;;;;;;;10.83;7.13;;;2.30;59.60;;;;;;6279116;22;20020;-89
2022/03/08 01:46:00;;;;;;;10.17;6.57;;;2.30;59.40;;;;;;6284213;22;20324;-89
2022/03/08 01:48:27;;;;;;;11.60;7.40;;;2.30;59.80;;;;;;6257833;22;20020;-88
2022/03/08 01:50:52;;;;;;;9.57;5.87;;;2.40;59.50;;;;;;6286310;22;20039;-89
2022/03/08 01:53:19;;;;;;;13.77;9.17;;;2.40;59.60;;;;;;6283787;22;20027;-89
2022/03/08 01:55:45;;;;;;;12.20;6.83;;;2.40;59.70;;;;;;6252097;22;20016;-89
2022/03/08 01:58:11;;;;;;;11.20;6.67;;;2.40;59.80;;;;;;6278616;22;20016;-89
2022/03/08 02:00:36;;;;;;;9.73;6.27;;;2.40;59.40;;;;;;6251485;22;20019;-88
2022/03/08 02:03:02;;;;;;;12.90;7.43;;;2.40;59.40;;;;;;6278953;22;20019;-88
2022/03/08 02:05:29;;;;;;;9.40;6.20;;;2.50;59.40;;;;;;6251170;22;20020;-89
2022/03/08 02:07:55;;;;;;;11.23;7.30;;;2.50;59.40;;;;;;6279034;22;20427;-89
2022/03/08 02:10:58;;;;;;;12.90;7.27;;;2.50;59.40;;;;;;6278771;22;20011;-89
2022/03/08 02:13:25;;;;;;;12.90;7.97;;;2.50;59.20;;;;;;6278694;22;20015;-89
2022/03/08 02:15:52;;;;;;;10.97;7.10;;;2.50;59.00;;;;;;6251451;22;20019;-90
2022/03/08 02:18:19;;;;;;;11.53;7.90;;;2.50;59.00;;;;;;6278778;22;20099;-90
2022/03/08 02:20:45;;;;;;;10.93;7.00;;;2.50;58.90;;;;;;6278662;22;20012;-89
2022/03/08 02:23:12;;;;;;;11.03;7.63;;;2.40;58.80;;;;;;6251082;22;20054;-90
2022/03/08 02:25:56;;;;;;;15.70;7.43;;;2.40;58.80;;;;;;6251531;22;20024;-90
2022/03/08 02:28:22;;;;;;;10.77;6.73;;;2.40;58.70;;;;;;6278829;22;20015;-89
2022/03/08 02:30:48;;;;;;;12.60;8.53;;;2.30;58.70;;;;;;6278731;22;20235;-90
2022/03/08 02:33:14;;;;;;;12.70;7.63;;;2.30;58.70;;;;;;6278505;22;20083;-90
2022/03/08 02:35:39;;;;;;;12.60;8.27;;;2.30;58.70;;;;;;6278631;22;20035;-90
2022/03/08 02:38:06;;;;;;;14.67;8.57;;;2.20;58.70;;;;;;6279034;22;20038;-90
2022/03/08 02:41:28;;;;;;;12.80;7.60;;;2.20;58.80;;;;;;6251258;22;20098;-90
2022/03/08 02:43:53;;;;;;;13.97;8.20;;;2.20;59.00;;;;;;6278732;22;20441;-90
2022/03/08 02:46:19;;;;;;;13.10;8.53;;;2.10;59.00;;;;;;6225746;22;20023;-90
2022/03/08 02:48:44;;;;;;;15.53;8.37;;;2.00;59.00;;;;;;6252268;22;20023;-90
2022/03/08 02:51:10;;;;;;;13.33;9.20;;;2.00;59.20;;;;;;6278365;22;20320;-90
2022/03/08 02:53:36;;;;;;;11.17;8.30;;;2.00;59.20;;;;;;6251367;22;20020;-89
2022/03/08 02:56:01;;;;;;;12.97;7.70;;;2.00;59.30;;;;;;6251962;22;20483;-90
2022/03/08 02:58:27;;;;;;;12.73;8.47;;;1.90;59.30;;;;;;6250978;22;20023;-90
2022/03/08 03:00:53;;;;;;;16.17;9.37;;;1.90;59.50;;;;;;6279026;22;20436;-90
2022/03/08 03:03:18;;;;;;;14.07;9.33;;;1.90;59.60;;;;;;6251953;22;20048;-90
2022/03/08 03:05:44;;;;;;;15.07;9.50;;;1.90;59.50;;;;;;6251438;22;20444;-90
2022/03/08 03:08:10;;;;;;;15.17;10.00;;;1.90;59.60;;;;;;6251496;22;20433;-90
2022/03/08 03:10:36;;;;;;;14.30;8.00;;;1.90;59.60;;;;;;6251421;22;20094;-90
2022/03/08 03:13:02;;;;;;;15.33;9.40;;;1.90;59.70;;;;;;6279011;22;20012;-89
2022/03/08 03:15:29;;;;;;;17.00;10.20;;;1.90;59.80;;;;;;6278792;22;20046;-90
2022/03/08 03:17:55;;;;;;;18.23;9.17;;;1.90;59.80;;;;;;6278702;22;20095;-89
2022/03/08 03:20:22;;;;;;;14.43;9.90;;;1.90;59.70;;;;;;6278133;22;20058;-90
2022/03/08 03:22:49;;;;;;;19.63;13.40;;;1.80;59.60;;;;;;6278330;22;20436;-90
2022/03/08 03:25:16;;;;;;;17.67;11.53;;;1.80;59.70;;;;;;6278797;22;20423;-89
2022/03/08 03:27:43;;;;;;;17.70;10.77;;;1.70;59.80;;;;;;6278597;22;20451;-90
2022/03/08 03:30:14;;;;;;;17.50;10.50;;;1.70;59.90;;;;;;6252050;22;20015;-90
2022/03/08 03:32:41;;;;;;;14.67;9.53;;;1.70;60.00;;;;;;6225670;22;20016;-90
2022/03/08 03:35:07;;;;;;;17.30;10.27;;;1.60;60.00;;;;;;6278533;22;20047;-90
2022/03/08 03:37:34;;;;;;;18.83;10.87;;;1.60;60.20;;;;;;6277599;22;20020;-89
2022/03/08 03:43:40;;;;;;;17.80;10.87;;;1.60;60.50;;;;;;6278486;22;20014;-90
2022/03/08 03:46:07;;;;;;;16.77;10.80;;;1.50;60.30;;;;;;6278723;22;20015;-89
2022/03/08 03:48:34;;;;;;;19.47;10.03;;;1.50;60.80;;;;;;6251685;22;20090;-90
2022/03/08 03:50:59;;;;;;;17.67;10.50;;;1.50;60.80;;;;;;6251062;22;20023;-90
2022/03/08 03:53:25;;;;;;;17.50;11.13;;;1.50;60.90;;;;;;6278721;22;20022;-90
2022/03/08 03:55:51;;;;;;;18.03;10.23;;;1.50;60.90;;;;;;6278640;22;20024;-90
2022/03/08 03:58:17;;;;;;;18.13;10.00;;;1.40;60.90;;;;;;6278636;22;20413;-90
2022/03/08 04:00:42;;;;;;;21.27;11.80;;;1.40;61.00;;;;;;6276852;22;20497;-90
2022/03/08 04:03:08;;;;;;;19.17;11.50;;;1.40;61.00;;;;;;6278780;22;20016;-90
2022/03/08 04:05:34;;;;;;;20.80;11.73;;;1.40;61.10;;;;;;6251653;22;20020;-90
2022/03/08 04:07:59;;;;;;;15.93;10.60;;;1.30;61.20;;;;;;6279071;22;20050;-90
2022/03/08 04:10:25;;;;;;;17.80;11.40;;;1.30;61.30;;;;;;6286188;22;20047;-90
2022/03/08 04:12:51;;;;;;;21.00;12.00;;;1.30;61.30;;;;;;6294744;22;20028;-90
2022/03/08 04:15:16;;;;;;;17.93;11.50;;;1.20;61.40;;;;;;6294213;22;20012;-90
2022/03/08 04:17:43;;;;;;;16.57;11.30;;;1.20;61.50;;;;;;6288086;22;20424;-90
2022/03/08 04:20:09;;;;;;;18.77;11.70;;;1.20;61.60;;;;;;6281353;22;20008;-90
2022/03/08 04:22:35;;;;;;;16.10;11.57;;;1.20;61.70;;;;;;6254036;22;20497;-90
2022/03/08 04:25:20;;;;;;;17.83;10.97;;;1.10;61.60;;;;;;6281373;22;20023;-90
2022/03/08 04:27:45;;;;;;;16.77;11.40;;;1.20;61.80;;;;;;6280847;22;20026;-89
2022/03/08 04:30:11;;;;;;;19.13;11.60;;;1.10;61.70;;;;;;6255128;22;20091;-89
2022/03/08 04:32:37;;;;;;;19.47;11.87;;;1.10;61.80;;;;;;6260436;22;20015;-90
2022/03/08 04:35:05;;;;;;;20.47;12.00;;;1.10;62.00;;;;;;6256390;22;20012;-89
2022/03/08 04:37:31;;;;;;;17.73;10.70;;;1.10;62.10;;;;;;6253052;22;20367;-90
2022/03/08 04:39:56;;;;;;;19.10;11.93;;;1.10;62.10;;;;;;6280632;22;20016;-90
2022/03/08 04:42:22;;;;;;;16.37;10.90;;;1.00;62.00;;;;;;6254118;22;20507;-90
2022/03/08 04:44:48;;;;;;;20.07;12.00;;;1.00;62.20;;;;;;6253820;22;20054;-90
2022/03/08 04:47:13;;;;;;;17.33;10.93;;;1.00;62.20;;;;;;6280642;22;20042;-90
2022/03/08 04:49:39;;;;;;;16.30;10.57;;;1.00;62.20;;;;;;6280941;22;20023;-90
2022/03/08 04:52:05;;;;;;;17.90;11.67;;;1.00;62.10;;;;;;6267526;22;20072;-89
2022/03/08 04:54:30;;;;;;;19.23;10.90;;;1.00;62.20;;;;;;6276387;22;20047;-88
2022/03/08 04:56:56;;;;;;;18.20;12.13;;;0.90;62.20;;;;;;6277672;22;20004;-90
2022/03/08 04:59:22;;;;;;;17.90;11.47;;;0.90;62.30;;;;;;6260332;22;20405;-90
2022/03/08 05:01:49;;;;;;;20.67;13.17;;;0.90;62.30;;;;;;6280597;22;20020;-90
2022/03/08 05:04:15;;;;;;;17.53;11.13;;;0.90;62.30;;;;;;6280406;22;20008;-90
2022/03/08 05:06:41;;;;;;;17.87;11.70;;;0.90;62.30;;;;;;6280230;22;20015;-90
2022/03/08 05:09:07;;;;;;;17.50;11.87;;;0.90;62.50;;;;;;6252622;22;20134;-90
2022/03/08 05:11:51;;;;;;;17.30;11.73;;;0.80;62.30;;;;;;6280420;22;20494;-90
2022/03/08 05:14:16;;;;;;;19.03;11.13;;;0.80;62.50;;;;;;6252663;22;20359;-89
2022/03/08 05:16:42;;;;;;;18.97;12.13;;;0.80;62.50;;;;;;6280346;22;20015;-89
2022/03/08 05:19:08;;;;;;;17.97;10.97;;;0.80;62.60;;;;;;6279811;22;20456;-90
2022/03/08 05:21:33;;;;;;;19.97;12.47;;;0.80;62.60;;;;;;6279189;22;20015;-90
2022/03/08 05:23:59;;;;;;;19.93;12.40;;;0.80;62.70;;;;;;6222082;22;20087;-90
2022/03/08 05:30:07;;;;;;;18.70;11.83;;;0.80;62.80;;;;;;6250005;23;20087;-90
2022/03/08 05:32:32;;;;;;;19.50;12.33;;;0.70;62.80;;;;;;6247609;23;20042;-89
2022/03/08 05:34:58;;;;;;;18.93;12.07;;;0.70;62.70;;;;;;6249841;22;20016;-90
2022/03/08 05:37:24;;;;;;;19.20;11.87;;;0.70;62.90;;;;;;6247153;23;20082;-89
2022/03/08 05:39:49;;;;;;;18.87;12.03;;;0.70;62.90;;;;;;6249336;22;20429;-87
2022/03/08 05:45:56;;;;;;;21.03;12.67;;;0.70;63.10;;;;;;6248689;23;20015;-89
2022/03/08 05:48:21;;;;;;;20.23;13.30;;;0.80;63.10;;;;;;6248593;22;20012;-89
2022/03/08 05:50:47;;;;;;;19.37;12.57;;;0.70;63.10;;;;;;6247458;23;20046;-89
2022/03/08 05:53:13;;;;;;;17.57;11.37;;;0.70;63.20;;;;;;6246849;23;20016;-89
2022/03/08 05:59:03;;;;;;;18.43;12.33;;;0.70;63.30;;;;;;6248323;22;20057;-89
2022/03/08 06:01:29;;;;;;;20.20;12.03;;;0.70;63.20;;;;;;6247363;23;20039;-89
2022/03/08 06:03:55;;;;;;;18.13;11.87;;;0.70;63.20;;;;;;6250162;22;20023;-90
2022/03/08 06:06:20;;;;;;;19.53;13.03;;;0.70;63.30;;;;;;6248708;22;20016;-90
2022/03/08 06:08:49;;;;;;;18.13;12.97;;;0.70;63.20;;;;;;6247321;23;20017;-90
2022/03/08 06:11:14;;;;;;;19.63;12.50;;;0.70;63.30;;;;;;6249346;22;20043;-89
2022/03/08 06:13:40;;;;;;;18.87;13.07;;;0.70;63.70;;;;;;6249379;22;20437;-89
2022/03/08 06:16:07;;;;;;;20.93;13.27;;;0.70;63.30;;;;;;6248100;23;20024;-90
2022/03/08 06:18:32;;;;;;;18.93;12.60;;;0.70;63.20;;;;;;6249022;22;20091;-89
2022/03/08 06:20:58;;;;;;;18.63;12.60;;;0.70;63.30;;;;;;6252573;22;20424;-90
2022/03/08 06:23:23;;;;;;;19.67;12.17;;;0.70;63.30;;;;;;6270270;22;20011;-89
2022/03/08 06:29:51;;;;;;;19.83;11.83;;;0.70;63.30;;;;;;6281047;22;20057;-89
2022/03/08 06:32:17;;;;;;;17.20;11.90;;;0.70;63.20;;;;;;6253050;22;20059;-95
2022/03/08 06:34:43;;;;;;;18.63;11.93;;;0.70;63.20;;;;;;6283864;22;20027;-91
2022/03/08 06:37:08;;;;;;;17.90;11.57;;;0.70;63.20;;;;;;6258847;22;20019;-89
2022/03/08 06:39:34;;;;;;;19.73;12.50;;;0.80;63.20;;;;;;6260856;22;20015;-90
2022/03/08 06:42:00;;;;;;;18.57;10.70;;;0.80;63.30;;;;;;6299319;22;20019;-89
2022/03/08 06:44:25;;;;;;;17.27;11.40;;;0.80;63.60;;;;;;6271966;22;20020;-90
2022/03/08 06:46:51;;;;;;;21.33;12.03;;;0.80;63.20;;;;;;6270317;22;20026;-91
2022/03/08 06:49:16;;;;;;;16.80;11.73;;;0.80;63.30;;;;;;6270141;22;20016;-90
2022/03/08 06:51:42;;;;;;;18.47;12.53;;;0.80;63.40;;;;;;6301806;22;20067;-89
2022/03/08 06:54:08;;;;;;;18.67;12.13;;;0.80;63.30;;;;;;6301983;22;20019;-90
2022/03/08 06:56:35;;;;;;;16.73;11.53;;;0.80;63.30;;;;;;6275420;22;20020;-90
2022/03/08 06:59:02;;;;;;;16.33;11.30;;;0.80;63.30;;;;;;6276430;22;20045;-89
2022/03/08 07:01:28;;;;;;;16.57;11.13;;;0.90;63.40;;;;;;6299638;22;19996;-88
2022/03/08 07:03:53;;;;;;;17.30;11.63;;;0.90;63.40;;;;;;6301665;22;20056;-89
2022/03/08 07:06:19;;;;;;;18.47;11.40;;;0.90;63.40;;;;;;6303887;22;19999;-89
2022/03/08 07:08:45;;;;;;;18.93;11.50;;;1.00;63.40;;;;;;6277125;22;20020;-86
2022/03/08 07:18:32;;;;;;;16.70;10.60;;;1.10;63.30;;;;;;6283466;22;20014;-89
2022/03/08 07:21:00;;;;;;;16.70;11.77;;;1.20;63.20;;;;;;6284345;22;20388;-87
2022/03/08 07:23:26;;;;;;;19.27;11.33;;;1.20;63.10;;;;;;6282832;22;20331;-87
2022/03/08 07:25:51;;;;;;;20.97;12.57;;;1.30;63.20;;;;;;6255820;22;20107;-88
2022/03/08 07:28:17;;;;;;;21.33;12.50;;;1.40;63.10;;;;;;6281441;22;20012;-88
2022/03/08 07:30:43;;;;;;;18.57;11.57;;;1.40;63.00;;;;;;6278972;22;20016;-88
2022/03/08 07:33:08;;;;;;;19.03;11.57;;;1.50;62.90;;;;;;6278443;22;20012;-88
2022/03/08 07:35:34;;;;;;;16.97;11.40;;;1.60;62.90;;;;;;6257910;22;20020;-88
2022/03/08 07:38:00;;;;;;;16.93;10.97;;;1.60;62.80;;;;;;6278710;22;20017;-88
2022/03/08 07:40:25;;;;;;;15.80;11.40;;;1.70;62.70;;;;;;6277963;22;20027;-87
2022/03/08 07:42:51;;;;;;;17.83;11.87;;;1.80;62.70;;;;;;6250368;22;20023;-87
2022/03/08 07:45:17;;;;;;;17.17;10.70;;;1.90;62.60;;;;;;6280461;22;20027;-87
2022/03/08 07:47:42;;;;;;;16.50;11.30;;;2.00;62.50;;;;;;6253017;22;20104;-88
2022/03/08 07:50:09;;;;;;;16.07;10.07;;;2.00;62.20;;;;;;6279880;22;20046;-87
2022/03/08 07:52:34;;;;;;;12.53;9.27;;;2.10;62.10;;;;;;6279425;22;20022;-87
2022/03/08 07:55:00;;;;;;;15.73;9.87;;;2.30;61.90;;;;;;6252772;22;20019;-87
2022/03/08 07:57:44;;;;;;;14.27;10.40;;;2.40;61.70;;;;;;6252109;22;20047;-87
2022/03/08 08:00:11;;;;;;;15.98;9.55;;;2.50;61.30;;;;;;6279567;22;20016;-87
2022/03/08 08:02:37;;;;;;;13.87;10.40;;;2.60;61.10;;;;;;6252242;22;20058;-87
2022/03/08 08:05:03;;;;;;;15.47;10.03;;;2.70;60.90;;;;;;6279618;22;20011;-87
2022/03/08 08:07:29;;;;;;;12.90;9.30;;;2.80;60.70;;;;;;6252753;22;20016;-85
2022/03/08 08:09:55;;;;;;;14.73;9.67;;;2.90;60.60;;;;;;6280203;22;20058;-87
2022/03/08 08:12:21;;;;;;;14.10;9.77;;;3.10;60.30;;;;;;6253527;22;20019;-87
2022/03/08 08:14:47;;;;;;;12.67;9.37;;;3.20;59.90;;;;;;6254249;22;20435;-87
2022/03/08 08:17:13;;;;;;;14.97;9.93;;;3.30;59.70;;;;;;6281580;22;20015;-86
2022/03/08 08:19:38;;;;;;;13.23;9.57;;;3.50;59.50;;;;;;6279592;22;20027;-87
2022/03/08 08:22:04;;;;;;;13.83;9.00;;;3.70;59.30;;;;;;6279399;22;20018;-86
2022/03/08 08:24:29;;;;;;;14.90;9.57;;;3.90;58.60;;;;;;6247005;22;20024;-87
2022/03/08 08:26:55;;;;;;;11.15;8.75;;;4.00;58.20;;;;;;6248606;22;20086;-86
2022/03/08 08:29:21;;;;;;;12.27;9.85;;;4.20;58.10;;;;;;6248938;23;20104;-86
2022/03/08 08:31:47;;;;;;;13.23;8.88;;;4.40;57.80;;;;;;6248636;23;20428;-86
2022/03/08 08:34:13;;;;;;;12.57;8.05;;;4.50;57.40;;;;;;6246734;23;20087;-86
2022/03/08 08:36:39;;;;;;;14.73;9.52;;;4.70;57.10;;;;;;6248286;23;20020;-86
2022/03/08 08:39:04;;;;;;;11.30;8.32;;;4.90;56.50;;;;;;6249717;23;20017;-86
2022/03/08 08:41:30;;;;;;;12.20;8.85;;;5.10;55.90;;;;;;6250875;23;20016;-86
2022/03/08 08:43:56;;;;;;;11.55;8.18;;;5.20;55.60;;;;;;6250663;22;20016;-86
2022/03/08 08:46:22;;;;;;;11.15;7.45;;;5.40;55.50;;;;;;6248994;23;20016;-87
2022/03/08 08:48:48;;;;;;;10.93;8.25;;;5.60;55.20;;;;;;6250608;23;20085;-86
2022/03/08 08:51:13;;;;;;;12.07;7.82;;;5.70;54.30;;;;;;6249094;23;20451;-87
2022/03/08 08:53:39;;;;;;;11.35;8.85;;;5.90;53.50;;;;;;6249443;23;20012;-86
2022/03/08 08:56:05;;;;;;;12.07;8.98;;;6.00;53.40;;;;;;6250609;23;20016;-86
2022/03/08 08:58:30;;;;;;;14.75;10.18;;;6.20;52.60;;;;;;6249890;22;20436;-87
2022/03/08 09:00:56;;;;;;;16.10;10.70;;;6.30;52.20;;;;;;6249746;22;20051;-87
2022/03/08 09:03:23;;;;;;;10.15;7.10;;;6.40;51.70;;;;;;6249323;22;20091;-86
2022/03/08 09:05:48;;;;;;;8.32;6.50;;;6.60;51.50;;;;;;6249315;22;20008;-87
2022/03/08 09:08:14;;;;;;;8.13;6.25;;;6.70;50.60;;;;;;6265903;23;20023;-86
2022/03/08 09:10:41;;;;;;;10.50;6.07;;;6.90;49.30;;;;;;6262381;23;20052;-87
2022/03/08 09:13:06;;;;;;;10.63;6.63;;;7.00;48.80;;;;;;6255388;23;20146;-86
2022/03/08 09:15:33;;;;;;;8.00;6.00;;;7.20;48.30;;;;;;6250508;23;20332;-86
2022/03/08 09:17:59;;;;;;;7.35;5.57;;;7.30;47.90;;;;;;6247776;23;20061;-86
2022/03/08 09:20:25;;;;;;;9.05;6.45;;;7.50;47.50;;;;;;6250436;22;20061;-86
2022/03/08 09:22:52;;;;;;;9.48;6.25;;;7.60;46.30;;;;;;6249997;22;20016;-84
2022/03/08 09:25:18;;;;;;;8.70;6.10;;;7.70;46.20;;;;;;6253401;22;20023;-86
2022/03/08 09:27:44;;;;;;;9.52;6.82;;;7.70;45.30;;;;;;6280509;22;20341;-85
2022/03/08 09:30:11;;;;;;;8.45;6.25;;;7.70;44.70;;;;;;6280176;22;20023;-85
2022/03/08 09:32:37;;;;;;;10.02;6.32;;;7.80;44.90;;;;;;6280638;22;20054;-85
2022/03/08 09:35:03;;;;;;;8.38;6.82;;;7.80;45.60;;;;;;6252821;22;20483;-85
2022/03/08 09:37:29;;;;;;;8.23;6.47;;;7.90;46.00;;;;;;6279770;22;20474;-85
2022/03/08 09:39:54;;;;;;;9.35;6.40;;;8.00;45.40;;;;;;6278878;22;20020;-85
2022/03/08 09:42:21;;;;;;;7.72;6.18;;;8.00;45.50;;;;;;6278511;22;20011;-84
2022/03/08 09:44:48;;;;;;;7.28;6.05;;;8.10;45.50;;;;;;6278881;22;20008;-85
2022/03/08 09:47:18;;;;;;;9.68;7.30;;;8.20;45.30;;;;;;6251320;22;20015;-85
2022/03/08 09:49:44;;;;;;;8.05;6.30;;;8.30;45.00;;;;;;6278017;22;20015;-85
2022/03/08 09:52:10;;;;;;;9.13;7.10;;;8.30;44.60;;;;;;6278679;22;20042;-85
2022/03/08 09:54:36;;;;;;;10.75;7.00;;;8.40;44.80;;;;;;6251168;22;20012;-85
2022/03/08 09:57:09;;;;;;;9.15;7.13;;;8.40;45.00;;;;;;6278015;22;20016;-85
2022/03/08 09:59:35;;;;;;;7.32;6.18;;;8.50;44.50;;;;;;6278432;22;20011;-84
2022/03/08 10:02:00;;;;;;;9.68;6.30;;;8.50;44.60;;;;;;6250669;22;20015;-84
2022/03/08 10:04:26;;;;;;;9.27;6.15;;;8.60;44.60;;;;;;6277615;22;20014;-84
2022/03/08 10:06:52;;;;;;;9.63;6.97;;;8.70;44.60;;;;;;6278156;22;20023;-84
2022/03/08 10:09:22;;;;;;;10.18;6.60;;;8.70;44.70;;;;;;6250481;22;20070;-84
2022/03/08 10:11:52;;;;;;;9.32;7.28;;;8.80;44.40;;;;;;6250112;22;20015;-85
2022/03/08 10:14:38;;;;;;;8.68;6.47;;;8.80;44.90;;;;;;6250705;22;20016;-84
2022/03/08 10:17:05;;;;;;;9.02;6.55;;;8.90;45.00;;;;;;6252919;22;20026;-84
2022/03/08 10:19:30;;;;;;;8.05;6.45;;;9.00;44.30;;;;;;6279792;22;20066;-84
2022/03/08 10:21:57;;;;;;;7.00;5.63;;;9.00;43.40;;;;;;6279509;22;20016;-84
2022/03/08 10:24:28;;;;;;;6.85;5.70;;;9.20;42.60;;;;;;6278882;22;20432;-84
2022/03/08 10:26:58;;;;;;;8.30;5.32;;;9.20;41.20;;;;;;6278141;22;20102;-83
2022/03/08 10:29:25;;;;;;;7.22;4.97;;;9.20;40.80;;;;;;6250694;22;20094;-84
2022/03/08 10:32:04;;;;;;;8.75;5.70;;;9.20;40.10;;;;;;6250736;22;20459;-84
2022/03/08 10:34:31;;;;;;;7.20;5.65;;;9.30;40.00;;;;;;6279929;22;20520;-84
2022/03/08 10:37:02;;;;;;;7.47;5.38;;;9.30;40.80;;;;;;6251037;22;20094;-84
2022/03/08 10:39:28;;;;;;;7.78;5.85;;;9.40;39.50;;;;;;6225506;22;20431;-84
2022/03/08 10:41:56;;;;;;;6.07;5.05;;;9.40;38.30;;;;;;6276739;22;20030;-84
2022/03/08 10:44:39;;;;;;;7.28;5.35;;;9.40;39.30;;;;;;6250529;22;20012;-84
2022/03/08 10:47:11;;;;;;;7.43;5.57;;;9.40;38.40;;;;;;6277779;22;20095;-84
2022/03/08 10:49:55;;;;;;;7.75;5.47;;;9.50;39.10;;;;;;6250486;22;20007;-84
2022/03/08 10:52:31;;;;;;;11.00;5.32;;;9.50;39.50;;;;;;6249916;22;20391;-84
2022/03/08 10:55:24;;;;;;;8.00;5.50;;;9.60;39.30;;;;;;6250417;22;20479;-84
2022/03/08 10:58:03;;;;;;;7.07;5.90;;;9.70;39.20;;;;;;6250118;22;20016;-83
2022/03/08 11:00:33;;;;;;;7.30;5.30;;;9.70;38.80;;;;;;6277467;22;20012;-84
2022/03/08 11:03:03;;;;;;;6.47;5.10;;;9.70;38.20;;;;;;6277937;22;20020;-84
2022/03/08 11:05:32;;;;;;;7.80;6.20;;;9.80;38.20;;;;;;6277774;22;20023;-84
2022/03/08 11:07:58;;;;;;;9.60;5.13;;;9.90;39.20;;;;;;6250355;22;20091;-84
2022/03/08 11:10:26;;;;;;;8.63;5.90;;;9.80;39.60;;;;;;6250280;22;20113;-84
2022/03/08 11:12:52;;;;;;;6.93;5.07;;;9.90;39.60;;;;;;6250669;22;20019;-84
2022/03/08 11:15:20;;;;;;;6.93;5.55;;;9.90;39.50;;;;;;6276473;22;20452;-84
2022/03/08 11:17:48;;;;;;;5.78;4.68;;;10.00;38.10;;;;;;6251483;22;20020;-84
2022/03/08 11:20:17;;;;;;;8.77;5.82;;;10.00;38.00;;;;;;6250674;22;20039;-83
2022/03/08 11:22:44;;;;;;;7.30;5.43;;;10.00;38.10;;;;;;6277854;22;20016;-84
2022/03/08 11:25:13;;;;;;;6.88;5.45;;;10.00;38.10;;;;;;6276894;22;20023;-84
2022/03/08 11:27:40;;;;;;;8.38;5.63;;;10.10;38.10;;;;;;6249816;22;20026;-85
2022/03/08 11:30:09;;;;;;;7.78;4.95;;;10.00;37.80;;;;;;6277571;22;20026;-84
2022/03/08 11:32:59;;;;;;;5.93;5.00;;;10.10;37.00;;;;;;6277384;22;20047;-84
2022/03/08 11:35:31;;;;;;;6.43;4.85;;;10.00;36.10;;;;;;6277882;22;20055;-83
2022/03/08 11:37:58;;;;;;;8.27;4.95;;;10.00;36.60;;;;;;6250211;22;20541;-84
2022/03/08 11:40:23;;;;;;;6.72;5.18;;;10.00;37.00;;;;;;6250322;22;20057;-83
2022/03/08 11:42:54;;;;;;;7.50;5.05;;;10.00;37.50;;;;;;6250044;22;20430;-83
2022/03/08 11:45:26;;;;;;;5.70;4.28;;;10.10;37.40;;;;;;6277208;22;20011;-82
2022/03/08 11:48:07;;;;;;;5.93;4.75;;;10.10;36.60;;;;;;6249770;22;20023;-83
2022/03/08 11:50:44;;;;;;;9.18;5.30;;;10.10;36.10;;;;;;6251367;22;20504;-84
2022/03/08 11:53:15;;;;;;;6.25;4.75;;;10.20;36.60;;;;;;6277304;22;20039;-84
2022/03/08 11:55:44;;;;;;;6.28;4.63;;;10.10;36.30;;;;;;6250390;22;20018;-84
2022/03/08 11:58:13;;;;;;;6.70;4.72;;;10.30;36.70;;;;;;6277307;22;20094;-85
2022/03/08 12:00:45;;;;;;;6.82;4.72;;;10.20;37.70;;;;;;6250891;22;20042;-84
2022/03/08 12:03:22;;;;;;;7.45;4.70;;;10.20;37.50;;;;;;6251131;22;20023;-84
2022/03/08 12:05:58;;;;;;;5.10;4.40;;;10.30;37.50;;;;;;6250223;22;20016;-83
2022/03/08 12:08:29;;;;;;;4.57;3.30;;;10.40;37.00;;;;;;6277802;22;20020;-84
2022/03/08 12:11:06;;;;;;;5.75;3.90;;;10.40;35.60;;;;;;6276895;22;20012;-84
2022/03/08 12:13:35;;;;;;;5.47;4.05;;;10.40;35.60;;;;;;6250398;22;20028;-84
2022/03/08 12:16:09;;;;;;;5.32;3.70;;;10.40;34.60;;;;;;6250496;22;20018;-84
2022/03/08 12:18:36;;;;;;;6.05;4.38;;;10.40;35.10;;;;;;6277092;22;20039;-83
2022/03/08 12:23:49;;;;;;;7.13;4.43;;;10.30;34.70;;;;;;6277031;22;20046;-83
2022/03/08 12:26:28;;;;;;;5.70;3.85;;;10.40;35.00;;;;;;6249574;22;20034;-83
2022/03/08 12:29:15;;;;;;;5.50;4.00;;;10.40;35.70;;;;;;6276924;22;20011;-83
2022/03/08 12:32:05;;;;;;;7.28;4.55;;;10.40;34.90;;;;;;6251455;22;20487;-83
2022/03/08 12:34:40;;;;;;;6.78;4.50;;;10.50;35.50;;;;;;6279209;22;20090;-83
2022/03/08 12:37:31;;;;;;;5.10;3.65;;;10.50;35.50;;;;;;6278314;22;20022;-82
2022/03/08 12:40:06;;;;;;;6.65;4.40;;;10.50;35.00;;;;;;6251928;22;20475;-83
2022/03/08 12:42:31;;;;;;;4.82;3.78;;;10.50;34.80;;;;;;6252199;22;20019;-83
2022/03/08 12:45:00;;;;;;;5.55;3.67;;;10.50;35.10;;;;;;6279290;22;20512;-83
2022/03/08 12:47:29;;;;;;;6.97;4.03;;;10.40;35.00;;;;;;6251501;22;20099;-83
2022/03/08 12:49:59;;;;;;;6.40;4.35;;;10.50;35.20;;;;;;6279092;22;20019;-84
2022/03/08 12:52:27;;;;;;;5.70;3.65;;;10.50;35.30;;;;;;6226500;22;20070;-85
2022/03/08 12:54:55;;;;;;;7.20;3.63;;;10.50;35.20;;;;;;6278820;22;20027;-84
2022/03/08 12:57:22;;;;;;;6.40;4.28;;;10.60;34.90;;;;;;6278473;22;20015;-84
2022/03/08 12:59:51;;;;;;;4.80;3.50;;;10.60;35.20;;;;;;6252090;22;20090;-83
2022/03/08 13:02:18;;;;;;;7.15;3.90;;;10.60;34.50;;;;;;6278761;22;20015;-83
2022/03/08 13:04:45;;;;;;;5.70;3.90;;;10.70;33.80;;;;;;6279265;22;20062;-84
2022/03/08 13:07:14;;;;;;;5.45;4.10;;;10.60;33.90;;;;;;6278596;22;20058;-83
2022/03/08 13:09:55;;;;;;;6.15;3.47;;;10.60;34.20;;;;;;6278412;22;20079;-83
2022/03/08 13:12:24;;;;;;;7.32;4.47;;;10.60;34.60;;;;;;6279097;22;20331;-84
2022/03/08 13:15:15;;;;;;;6.57;4.25;;;10.70;35.40;;;;;;6292191;22;20011;-83
2022/03/08 13:17:50;;;;;;;5.35;3.47;;;10.70;35.30;;;;;;6303323;22;20047;-83
2022/03/08 13:20:27;;;;;;;5.15;3.83;;;10.80;35.00;;;;;;6292917;22;20505;-84
2022/03/08 13:22:55;;;;;;;6.13;3.88;;;10.70;34.50;;;;;;6254040;22;20054;-84